Latest Coastal Weather Observations for Mandora

IDW60701

Issued at 8:32 am WST Friday 19 December 2014 (issued every 10 minutes, with the page automatically refreshed every 10 minutes)

About coastal observations | Map of coastal stations | Coastal observations for WA | Marine services | Other Formats
Station Details ID: 004019 Name: MANDORA Lat: -19.74 Lon: 120.84 Height: 7.5 m
Data from the previous 72 hours. | See also: Recent months at Mandora
Date/Time
WST
Temp

°C
Wind Pressure Rain
since 9am
mm
Weather Cloud Vis
km
Sea
Height
m
Swell
Dir
 
Speed
knots
Gust
knots
hPa Trend Height
m
Period
s
Dir
19/08:30am 31.1 NNW 7 14 1011.9 - 0.0 - - - - - - -
19/08:00am 31.0 N 6 9 1011.8 - 0.0 - - - - - - -
19/07:30am 30.1 N 5 8 1011.7 - 0.0 - - - - - - -
19/07:00am 29.4 N 7 9 1011.4 - 0.0 - - - - - - -
19/06:30am 27.2 N 1 4 1010.9 - 0.0 - - - - - - -
19/06:00am 25.5 NE 2 4 1010.7 - 0.0 - - - - - - -
19/05:30am 24.7 E 1 3 1010.2 - 0.0 - - - - - - -
19/05:00am 24.6 CALM 0 0 1009.8 - 0.0 - - - - - - -
19/04:30am 24.7 E 4 5 1009.6 - 0.0 - - - - - - -
19/04:00am 25.4 W 1 5 1009.2 - 0.0 - - - - - - -
19/03:30am 25.7 CALM 0 3 1008.7 - 0.0 - - - - - - -
19/03:00am 25.9 WNW 4 5 1008.5 - 0.0 - - - - - - -
19/02:30am 25.3 WNW 4 6 1008.5 - 0.0 - - - - - - -
19/02:00am 25.5 W 4 5 1008.7 - 0.0 - - - - - - -
19/01:30am 25.1 NW 4 5 1008.5 - 0.0 - - - - - - -
19/01:00am 25.4 W 4 5 1008.4 - 0.0 - - - - - - -
19/12:30am 25.6 W 4 4 1008.8 - 0.0 - - - - - - -
19/12:00am 26.1 W 4 6 1009.0 - 0.0 - - - - - - -
 
Date/Time
WST
Temp

°C
Wind Pressure Rain
since 9am
mm
Weather Cloud Vis
km
Sea
Height
m
Swell
Dir
 
Speed
knots
Gust
knots
hPa Trend Height
m
Period
s
Dir
18/11:30pm 26.5 W 4 5 1009.6 - 0.0 - - - - - - -
18/11:00pm 27.0 W 4 6 1009.7 - 0.0 - - - - - - -
18/10:30pm 27.1 W 5 7 1009.6 - 0.0 - - - - - - -
18/10:00pm 27.2 WNW 5 7 1009.6 - 0.0 - - - - - - -
18/09:30pm 27.3 WNW 6 7 1009.0 - 0.0 - - - - - - -
18/09:00pm 27.3 WNW 5 7 1008.7 - 0.0 - - - - - - -
18/08:30pm 27.5 NW 5 7 1008.5 - 0.0 - - - - - - -
18/08:00pm 27.9 WNW 6 8 1007.8 - 0.0 - - - - - - -
18/07:30pm 28.2 NW 6 9 1007.8 - 0.0 - - - - - - -
18/07:00pm 28.5 WNW 7 10 1007.3 - 0.0 - - - - - - -
18/06:30pm 29.2 NW 9 14 1006.7 - 0.0 - - - - - - -
18/06:00pm 30.1 NW 11 15 1006.2 - 0.0 - - - - - - -
18/05:30pm 31.1 NW 10 14 1005.9 - 0.0 - - - - - - -
18/05:00pm 30.8 NW 11 15 1005.8 - 0.0 - - - - - - -
18/04:30pm 31.6 NNW 11 16 1006.0 - 0.0 - - - - - - -
18/04:00pm 31.9 NW 12 17 1006.1 - 0.0 - - - - - - -
18/03:30pm 32.2 NW 11 17 1006.3 - 0.0 - - - - - - -
18/03:00pm 32.7 NNW 11 15 1006.4 - 0.0 - - - - - - -
18/02:30pm 32.9 NW 12 18 1006.9 - 0.0 - - - - - - -
18/02:00pm 32.4 NNW 11 16 1007.1 - 0.0 - - - - - - -
18/01:30pm 33.1 NNW 12 18 1007.4 - 0.0 - - - - - - -
18/01:00pm 33.1 NW 11 16 1007.5 - 0.0 - - - - - - -
18/12:30pm 33.1 NW 10 14 1007.7 - 0.0 - - - - - - -
18/12:00pm 32.8 NW 9 15 1007.7 - 0.0 - - - - - - -
18/11:30am 32.9 NW 8 13 1007.9 - 0.0 - - - - - - -
18/11:00am 32.7 NW 8 13 1008.2 - 0.0 - - - - - - -
18/10:30am 31.9 NW 9 14 1008.2 - 0.0 - - - - - - -
18/10:00am 32.1 NW 9 13 1008.5 - 0.0 - - - - - - -
18/09:30am 31.6 NW 8 11 1008.7 - 0.0 - - - - - - -
18/09:00am 31.1 WNW 9 13 1008.4 - 0.0 - - - - - - -
18/08:30am 30.9 WNW 8 12 1008.6 - 0.0 - - - - - - -
18/08:00am 30.6 WNW 8 11 1008.4 - 0.0 - - - - - - -
18/07:30am 29.9 WNW 9 13 1008.2 - 0.0 - - - - - - -
18/07:00am 29.5 WNW 8 12 1008.0 - 0.0 - - - - - - -
18/06:30am 28.3 WNW 5 9 1007.6 - 0.0 - - - - - - -
18/06:00am 25.6 WNW 4 6 1007.1 - 0.0 - - - - - - -
18/05:30am 25.0 WNW 5 6 1006.6 - 0.0 - - - - - - -
18/05:00am 25.4 WNW 4 5 1006.4 - 0.0 - - - - - - -
18/04:30am 25.6 W 4 5 1006.2 - 0.0 - - - - - - -
18/04:00am 26.0 W 5 6 1006.2 - 0.0 - - - - - - -
18/03:30am 26.8 W 5 7 1006.3 - 0.0 - - - - - - -
18/03:00am 26.9 W 6 7 1006.1 - 0.0 - - - - - - -
18/02:30am 26.8 W 5 6 1006.4 - 0.0 - - - - - - -
18/02:00am 26.7 WNW 5 7 1006.3 - 0.0 - - - - - - -
18/01:30am 26.9 WNW 6 7 1006.6 - 0.0 - - - - - - -
18/01:00am 26.9 WNW 5 7 1006.7 - 0.0 - - - - - - -
18/12:30am 27.1 WNW 6 8 1006.7 - 0.0 - - - - - - -
18/12:00am 27.1 WNW 6 9 1006.8 - 0.0 - - - - - - -
 
Date/Time
WST
Temp

°C
Wind Pressure Rain
since 9am
mm
Weather Cloud Vis
km
Sea
Height
m
Swell
Dir
 
Speed
knots
Gust
knots
hPa Trend Height
m
Period
s
Dir
17/11:30pm 27.3 WNW 6 9 1007.3 - 0.0 - - - - - - -
17/11:00pm 27.5 WNW 6 9 1007.5 - 0.0 - - - - - - -
17/10:30pm 27.7 WNW 7 9 1007.6 - 0.0 - - - - - - -
17/10:00pm 27.8 WNW 7 9 1007.7 - 0.0 - - - - - - -
17/09:30pm 27.9 WNW 8 10 1007.6 - 0.0 - - - - - - -
17/09:00pm 28.1 WNW 7 10 1007.4 - 0.0 - - - - - - -
17/08:30pm 28.1 WNW 6 9 1007.0 - 0.0 - - - - - - -
17/08:00pm 28.3 WNW 7 11 1006.6 - 0.0 - - - - - - -
17/07:30pm 28.4 NW 7 10 1006.3 - 0.0 - - - - - - -
17/07:00pm 28.7 NW 8 11 1005.9 - 0.0 - - - - - - -
17/06:30pm 29.2 NW 10 14 1005.4 - 0.0 - - - - - - -
17/06:00pm 29.9 NW 11 15 1004.8 - 0.0 - - - - - - -
17/05:30pm 30.2 NW 12 16 1004.5 - 0.0 - - - - - - -
17/05:00pm 30.7 NNW 12 17 1004.2 - 0.0 - - - - - - -
17/04:30pm 31.1 NNW 11 16 1004.2 - 0.0 - - - - - - -
17/04:00pm 31.2 NW 12 17 1004.1 - 0.0 - - - - - - -
17/03:30pm 31.7 NW 12 18 1004.4 - 0.0 - - - - - - -
17/03:00pm 31.8 NNW 12 19 1004.5 - 0.0 - - - - - - -
17/02:30pm 32.1 NNW 13 18 1005.0 - 0.0 - - - - - - -
17/02:00pm 32.5 NNW 12 22 1005.4 - 0.0 - - - - - - -
17/01:30pm 32.7 NW 11 16 1005.6 - 0.0 - - - - - - -
17/01:00pm 32.5 NW 13 17 1006.0 - 0.0 - - - - - - -
17/12:30pm 33.2 NW 12 19 1005.8 - 0.0 - - - - - - -
17/12:00pm 32.8 NW 11 17 1005.7 - 0.0 - - - - - - -
17/11:30am 32.2 NW 12 21 1005.8 - 0.0 - - - - - - -
17/11:00am 32.4 NW 11 18 1006.2 - 0.0 - - - - - - -
17/10:30am 31.8 NW 10 16 1006.5 - 0.0 - - - - - - -
17/10:00am 31.7 NW 9 15 1006.5 - 0.0 - - - - - - -
17/09:30am 31.5 NW 10 14 1006.6 - 0.0 - - - - - - -
17/09:00am 31.4 WNW 9 14 1006.6 - 0.0 - - - - - - -
17/08:30am 30.6 NW 9 14 1006.9 - 0.0 - - - - - - -
17/08:00am 30.6 NW 9 13 1006.9 - 0.0 - - - - - - -
17/07:30am 29.8 WNW 8 11 1006.8 - 0.0 - - - - - - -
17/07:00am 29.2 WNW 8 11 1006.5 - 0.0 - - - - - - -
17/06:30am 28.4 WNW 7 10 1006.3 - 0.0 - - - - - - -
17/06:00am 27.3 WNW 5 7 1005.8 - 0.0 - - - - - - -
17/05:30am 26.9 WNW 6 8 1005.7 - 0.0 - - - - - - -
17/05:00am 26.9 WNW 6 9 1005.5 - 0.0 - - - - - - -
17/04:30am 27.0 WNW 6 8 1005.5 - 0.0 - - - - - - -
17/04:00am 27.0 WNW 6 8 1005.3 - 0.0 - - - - - - -
17/03:30am 27.1 WNW 6 7 1005.5 - 0.0 - - - - - - -
17/03:00am 27.2 WNW 6 7 1005.8 - 0.0 - - - - - - -
17/02:30am 27.5 NW 5 7 1006.0 - 0.0 - - - - - - -
17/02:00am 27.7 WNW 7 9 1006.2 - 0.0 - - - - - - -
17/01:30am 27.6 NW 6 9 1006.5 - 0.0 - - - - - - -
17/01:00am 27.8 WNW 7 11 1006.4 - 0.0 - - - - - - -
17/12:30am 27.8 WNW 7 10 1006.6 - 0.0 - - - - - - -
17/12:00am 27.9 WNW 8 10 1006.6 - 0.0 - - - - - - -
 
Date/Time
WST
Temp

°C
Wind Pressure Rain
since 9am
mm
Weather Cloud Vis
km
Sea
Height
m
Swell
Dir
 
Speed
knots
Gust
knots
hPa Trend Height
m
Period
s
Dir
16/11:30pm 28.0 WNW 7 10 1006.9 - 0.0 - - - - - - -
16/11:00pm 28.1 WNW 8 12 1007.3 - 0.0 - - - - - - -
16/10:30pm 28.0 WNW 7 11 1007.6 - 0.0 - - - - - - -
16/10:00pm 28.1 WNW 7 11 1007.7 - 0.0 - - - - - - -
16/09:30pm 28.1 WNW 7 11 1007.8 - 0.0 - - - - - - -
16/09:00pm 28.3 WNW 8 10 1007.5 - 0.0 - - - - - - -
16/08:30pm 28.4 WNW 8 12 1007.2 - 0.0 - - - - - - -
16/08:00pm 28.4 WNW 7 11 1006.6 - 0.0 - - - - - - -
16/07:30pm 28.6 WNW 9 13 1005.8 - 0.0 - - - - - - -
16/07:00pm 28.7 WNW 11 17 1005.2 - 0.0 - - - - - - -
16/06:30pm 29.1 WNW 11 15 1004.8 - 0.0 - - - - - - -
16/06:00pm 29.6 WNW 13 18 1004.5 - 0.0 - - - - - - -
16/05:30pm 30.3 WNW 13 19 1004.3 - 0.0 - - - - - - -
16/05:00pm 30.8 WNW 14 21 1004.3 - 0.0 - - - - - - -
16/04:30pm 31.3 W 15 22 1004.4 - 0.0 - - - - - - -
16/04:00pm 31.4 WNW 15 24 1004.4 - 0.0 - - - - - - -
16/03:30pm 31.3 WNW 15 22 1004.7 - 0.0 - - - - - - -
16/03:00pm 32.7 WNW 14 20 1005.2 - 0.0 - - - - - - -
16/02:30pm 32.5 NW 14 22 1005.7 - 0.0 - - - - - - -
16/02:00pm 32.7 NW 14 22 1006.0 - 0.0 - - - - - - -
16/01:30pm 32.1 NW 15 21 1006.2 - 0.0 - - - - - - -
16/01:00pm 32.8 NW 14 21 1006.7 - 0.0 - - - - - - -
16/12:30pm 33.0 NW 13 19 1006.9 - 0.0 - - - - - - -
16/12:00pm 33.4 NW 13 17 1007.0 - 0.0 - - - - - - -
16/11:30am 32.8 NW 12 18 1007.4 - 0.0 - - - - - - -
16/11:00am 32.8 WNW 13 18 1007.6 - 0.0 - - - - - - -
16/10:30am 32.5 WNW 10 16 1007.8 - 0.0 - - - - - - -
16/10:00am 32.4 WNW 11 15 1008.0 - 0.0 - - - - - - -
16/09:30am 32.1 WNW 11 15 1008.2 - 0.0 - - - - - - -
16/09:00am 31.2 WNW 9 16 1008.3 - 0.2 - - - - - - -

Other Formats:

Comma delimited format used in spreadsheet applications
http://www.bom.gov.au/fwo/IDW60701/IDW60701.94200.axf

JavaScript Object Notation format (JSON) in row-major order
http://www.bom.gov.au/fwo/IDW60701/IDW60701.94200.json